Terminal Aerodrome Forecast
Issued by NWS Chicago, IL

Home | Current Version | Previous Version | Graphics & Text | Print | Product List | Glossary On
Versions: 1 2 3 4 5 6 7 8 9 10 11 12 13 14 15 16 17 18 19 20 21 22 23 24 25 26 27 28 29 30 31
878
FTUS43 KLOT 281624 AAA
TAFRFD
TAF AMD
KRFD 281624Z 2816/2912 VRB04KT P6SM VCTS SCT035CB BKN060
     FM281800 05008KT P6SM VCTS SCT030CB BKN060
      TEMPO 2818/2822 2SM -TSRA BKN040CB
     FM290100 04008KT P6SM SCT030 BKN050=

USA.gov is the U.S. government's official web portal to all federal, state and local government web resources and services.